createdAt,value
2019-03-21T00:00:50.261Z,5.83
2019-03-21T00:03:21.887Z,5.82
2019-03-21T00:05:52.552Z,5.82
2019-03-21T00:08:24.188Z,5.83
2019-03-21T00:11:45.803Z,5.84
2019-03-21T00:14:37.949Z,5.84
2019-03-21T00:17:08.667Z,5.80
2019-03-21T00:19:39.420Z,5.80
2019-03-21T00:22:10.095Z,5.81
2019-03-21T00:24:40.765Z,5.79
2019-03-21T00:27:11.534Z,5.81
2019-03-21T00:29:42.190Z,5.80
2019-03-21T00:32:12.951Z,5.78
2019-03-21T00:34:43.614Z,5.78
2019-03-21T00:37:14.284Z,5.74
2019-03-21T00:39:45.039Z,5.69
2019-03-21T00:42:15.712Z,5.66
2019-03-21T00:44:46.401Z,5.64
2019-03-21T00:47:17.066Z,5.61
2019-03-21T00:49:47.725Z,5.63
2019-03-21T00:52:18.478Z,5.59
2019-03-21T00:54:49.156Z,5.55
2019-03-21T00:57:19.870Z,5.54
2019-03-21T00:59:50.531Z,5.55
2019-03-21T01:02:21.205Z,5.52
2019-03-21T01:04:51.888Z,5.52
2019-03-21T01:07:22.531Z,5.50
2019-03-21T01:09:53.212Z,5.46
2019-03-21T01:12:23.883Z,5.46
2019-03-21T01:14:54.532Z,5.45
2019-03-21T01:17:25.204Z,5.44
2019-03-21T01:19:55.889Z,5.44
2019-03-21T01:22:26.630Z,5.42
2019-03-21T01:24:57.296Z,5.36
2019-03-21T01:27:27.970Z,5.29
2019-03-21T01:29:58.650Z,5.29
2019-03-21T01:32:29.301Z,5.29
2019-03-21T01:35:00.012Z,5.27
2019-03-21T01:37:30.669Z,5.24
2019-03-21T01:40:01.330Z,5.21
2019-03-21T01:42:31.978Z,5.17
2019-03-21T01:45:02.649Z,5.12
2019-03-21T01:47:33.309Z,5.06
2019-03-21T01:50:04.133Z,5.00
2019-03-21T01:52:34.776Z,4.96
2019-03-21T01:55:05.884Z,4.88
2019-03-21T01:57:36.556Z,4.89
2019-03-21T02:00:10.150Z,4.88
2019-03-21T02:02:40.921Z,4.84
2019-03-21T02:05:11.880Z,4.87
2019-03-21T02:07:42.530Z,4.88
2019-03-21T02:10:14.774Z,4.86
2019-03-21T02:12:45.429Z,4.87
2019-03-21T02:15:16.309Z,4.86
2019-03-21T02:17:47.023Z,4.85
2019-03-21T02:20:17.754Z,4.84
2019-03-21T02:22:48.426Z,4.82
2019-03-21T02:25:24.428Z,4.79
2019-03-21T02:27:55.096Z,4.75
2019-03-21T02:30:30.790Z,4.71
2019-03-21T02:33:04.893Z,4.68
2019-03-21T02:35:35.628Z,4.63
2019-03-21T02:38:06.391Z,4.62
2019-03-21T02:40:37.082Z,4.62
2019-03-21T02:43:07.753Z,4.62
2019-03-21T02:45:38.454Z,4.62
2019-03-21T02:48:09.157Z,4.61
2019-03-21T02:50:39.850Z,4.65
2019-03-21T02:53:10.515Z,4.68
2019-03-21T02:55:41.243Z,4.71
2019-03-21T02:58:11.925Z,4.75
2019-03-21T03:00:42.620Z,4.77
2019-03-21T03:03:14.429Z,4.78
2019-03-21T03:05:45.089Z,4.84
2019-03-21T03:08:15.752Z,4.86
2019-03-21T03:10:48.515Z,4.84
2019-03-21T03:13:19.179Z,4.86
2019-03-21T03:15:50.925Z,4.88
2019-03-21T03:18:21.608Z,4.87
2019-03-21T03:20:52.275Z,4.91
2019-03-21T03:23:22.924Z,4.90
2019-03-21T03:25:53.668Z,4.84
2019-03-21T03:28:25.611Z,4.80
2019-03-21T03:30:56.771Z,4.75
2019-03-21T03:33:27.469Z,4.68
2019-03-21T03:35:58.190Z,4.71
2019-03-21T03:38:28.920Z,4.68
2019-03-21T03:41:00.404Z,4.67
2019-03-21T03:43:31.120Z,4.65
2019-03-21T03:46:01.824Z,4.65
2019-03-21T03:48:32.515Z,4.67
2019-03-21T03:51:03.157Z,4.74
2019-03-21T03:53:33.832Z,4.75
2019-03-21T03:56:04.606Z,4.77
2019-03-21T03:58:35.889Z,4.78
2019-03-21T04:01:06.678Z,4.73
2019-03-21T04:03:37.339Z,4.68
2019-03-21T04:06:08.170Z,4.70
2019-03-21T04:08:38.849Z,4.73
2019-03-21T04:11:09.520Z,4.77
2019-03-21T04:13:40.169Z,4.76
2019-03-21T04:16:11.856Z,4.86
2019-03-21T04:18:42.505Z,4.93
2019-03-21T04:21:13.385Z,4.94
2019-03-21T04:23:44.030Z,4.95
2019-03-21T04:26:18.419Z,4.98
2019-03-21T04:28:49.075Z,5.03
2019-03-21T04:31:19.813Z,5.00
2019-03-21T04:33:51.176Z,4.99
2019-03-21T04:36:21.846Z,4.98
2019-03-21T04:38:52.545Z,5.01
2019-03-21T04:41:23.250Z,5.07
2019-03-21T04:43:53.910Z,5.13
2019-03-21T04:46:24.617Z,5.11
2019-03-21T04:48:55.311Z,5.16
2019-03-21T04:51:25.945Z,5.23
2019-03-21T04:53:57.598Z,5.32
2019-03-21T04:56:28.319Z,5.35
2019-03-21T04:58:59.027Z,5.41
2019-03-21T05:01:29.683Z,5.49
2019-03-21T05:04:00.370Z,5.53
2019-03-21T05:06:32.911Z,5.55
2019-03-21T05:09:05.259Z,5.64
2019-03-21T05:11:35.945Z,5.67
2019-03-21T05:14:06.630Z,5.69
2019-03-21T05:16:37.332Z,5.75
2019-03-21T05:19:08.004Z,5.86
2019-03-21T05:21:38.794Z,5.93
2019-03-21T05:24:09.631Z,6.03
2019-03-21T05:26:40.303Z,6.05
2019-03-21T05:29:10.980Z,6.06
2019-03-21T05:31:41.846Z,6.18
2019-03-21T05:34:13.152Z,6.13
2019-03-21T05:36:43.839Z,6.20
2019-03-21T05:39:14.501Z,6.22
2019-03-21T05:41:46.104Z,6.29
2019-03-21T05:44:24.474Z,6.30
2019-03-21T05:46:55.153Z,6.33
2019-03-21T05:49:25.875Z,6.38
2019-03-21T05:51:57.318Z,6.40
2019-03-21T05:54:27.977Z,6.50
2019-03-21T05:56:59.597Z,6.50
2019-03-21T05:59:30.710Z,6.58
2019-03-21T06:02:01.401Z,6.59
2019-03-21T06:04:32.126Z,6.64
2019-03-21T06:07:13.705Z,6.73
2019-03-21T06:09:44.480Z,6.73
2019-03-21T06:12:15.138Z,6.80
2019-03-21T06:14:50.961Z,6.85
2019-03-21T06:17:21.745Z,6.89
2019-03-21T06:20:41.020Z,6.89
2019-03-21T06:23:27.964Z,6.98
2019-03-21T06:26:27.356Z,7.08
2019-03-21T06:28:58.037Z,7.19
2019-03-21T06:31:28.687Z,7.24
2019-03-21T06:33:59.351Z,7.33
2019-03-21T06:36:30.020Z,7.36
2019-03-21T06:39:00.700Z,7.43
2019-03-21T06:41:32.959Z,7.54
2019-03-21T06:44:03.710Z,7.56
2019-03-21T06:46:34.369Z,7.65
2019-03-21T06:49:05.052Z,7.67
2019-03-21T06:51:35.706Z,7.70
2019-03-21T06:54:06.484Z,7.74
2019-03-21T06:56:37.145Z,7.83
2019-03-21T06:59:07.837Z,7.90
2019-03-21T07:01:38.494Z,7.93
2019-03-21T07:04:09.168Z,7.94
2019-03-21T07:06:39.842Z,8.06
2019-03-21T07:09:10.526Z,8.15
2019-03-21T07:11:41.178Z,8.23
2019-03-21T07:14:11.875Z,8.32
2019-03-21T07:16:42.529Z,8.41
2019-03-21T07:19:13.193Z,8.46
2019-03-21T07:21:43.865Z,8.52
2019-03-21T07:24:14.510Z,8.58
2019-03-21T07:26:45.158Z,8.65
2019-03-21T07:29:15.827Z,8.81
2019-03-21T07:31:46.475Z,8.88
2019-03-21T07:34:17.122Z,8.95
2019-03-21T07:36:47.784Z,9.07
2019-03-21T07:39:18.455Z,9.15
2019-03-21T07:41:49.096Z,9.20
2019-03-21T07:44:19.738Z,9.22
2019-03-21T07:46:50.393Z,9.28
2019-03-21T07:49:21.133Z,9.29
2019-03-21T07:51:51.794Z,9.33
2019-03-21T07:54:22.447Z,9.41
2019-03-21T07:56:53.113Z,9.46
2019-03-21T07:59:23.823Z,9.48
2019-03-21T08:01:54.483Z,9.48
2019-03-21T08:04:26.171Z,9.47
2019-03-21T08:06:56.827Z,9.49
2019-03-21T08:09:27.595Z,9.47
2019-03-21T08:11:58.232Z,9.56
2019-03-21T08:14:28.936Z,9.73
2019-03-21T08:16:59.579Z,9.79
2019-03-21T08:19:30.253Z,9.92
2019-03-21T08:22:00.910Z,10.00
2019-03-21T08:24:31.588Z,10.13
2019-03-21T08:27:02.238Z,10.19
2019-03-21T08:29:32.896Z,10.27
2019-03-21T08:32:03.550Z,10.35
2019-03-21T08:34:34.193Z,10.43
2019-03-21T08:37:04.849Z,10.57
2019-03-21T08:39:35.551Z,10.65
2019-03-21T08:42:06.201Z,10.66
2019-03-21T08:44:36.871Z,10.66
2019-03-21T08:47:07.530Z,10.78
2019-03-21T08:49:38.303Z,10.85
2019-03-21T08:52:08.999Z,10.91
2019-03-21T08:54:39.666Z,10.95
2019-03-21T08:57:10.312Z,11.05
2019-03-21T08:59:41.016Z,11.17
2019-03-21T09:02:11.676Z,11.28
2019-03-21T09:04:42.342Z,11.37
2019-03-21T09:07:13.036Z,11.41
2019-03-21T09:09:43.685Z,11.54
2019-03-21T09:12:14.365Z,11.68
2019-03-21T09:14:45.016Z,11.77
2019-03-21T09:17:15.686Z,11.82
2019-03-21T09:19:46.390Z,11.90
2019-03-21T09:22:17.041Z,12.01
2019-03-21T09:24:47.700Z,12.02
2019-03-21T09:27:18.388Z,12.02
2019-03-21T09:29:53.554Z,12.19
2019-03-21T09:32:21.513Z,12.34
2019-03-21T09:34:52.283Z,12.43
2019-03-21T09:37:22.953Z,12.52
2019-03-21T09:39:53.607Z,12.61
2019-03-21T09:42:24.253Z,12.68
2019-03-21T09:44:54.916Z,12.82
2019-03-21T09:47:25.568Z,12.85
2019-03-21T09:49:56.249Z,12.90
2019-03-21T09:52:26.906Z,13.01
2019-03-21T09:54:57.586Z,12.99
2019-03-21T09:57:28.226Z,12.94
2019-03-21T09:59:59.048Z,13.03
2019-03-21T10:02:29.747Z,13.07
2019-03-21T10:05:00.400Z,13.07
2019-03-21T10:07:31.068Z,13.02
2019-03-21T10:10:01.738Z,13.02
2019-03-21T10:12:32.520Z,13.16
2019-03-21T10:15:03.206Z,13.24
2019-03-21T10:17:33.889Z,13.25
2019-03-21T10:20:04.787Z,13.19
2019-03-21T10:22:35.458Z,13.20
2019-03-21T10:25:06.575Z,13.20
2019-03-21T10:27:37.244Z,13.18
2019-03-21T10:30:08.447Z,13.18
2019-03-21T10:32:39.100Z,13.31
2019-03-21T10:35:09.772Z,13.13
2019-03-21T10:37:41.501Z,13.16
2019-03-21T10:40:12.192Z,13.17
2019-03-21T10:42:42.870Z,13.16
2019-03-21T10:45:13.548Z,13.21
2019-03-21T10:47:44.200Z,13.13
2019-03-21T10:50:18.056Z,13.10
2019-03-21T10:52:48.702Z,13.02
2019-03-21T10:55:19.385Z,13.01
2019-03-21T10:57:50.055Z,13.07
2019-03-21T11:00:21.878Z,12.96
2019-03-21T11:02:52.549Z,12.95
2019-03-21T11:05:23.491Z,12.86
2019-03-21T11:07:54.153Z,12.92
2019-03-21T11:10:24.837Z,12.89
2019-03-21T11:12:55.490Z,12.89
2019-03-21T11:15:26.166Z,12.84
2019-03-21T11:17:57.072Z,12.91
2019-03-21T11:20:38.869Z,12.81
2019-03-21T11:23:09.862Z,12.87
2019-03-21T11:25:40.532Z,12.81
2019-03-21T11:28:11.506Z,12.86
2019-03-21T11:30:43.866Z,12.77
2019-03-21T11:33:14.513Z,12.74
2019-03-21T11:35:45.181Z,12.72
2019-03-21T11:38:15.844Z,12.68
2019-03-21T11:40:48.545Z,12.76
2019-03-21T11:43:20.245Z,12.79
2019-03-21T11:45:50.907Z,12.84
2019-03-21T11:48:21.545Z,12.81
2019-03-21T11:50:52.231Z,12.87
2019-03-21T11:53:22.877Z,12.86
2019-03-21T11:55:54.532Z,12.85
2019-03-21T11:58:25.199Z,12.81
2019-03-21T12:00:55.948Z,12.87
2019-03-21T12:03:26.646Z,12.96
2019-03-21T12:05:57.320Z,12.93
2019-03-21T12:08:27.979Z,13.02
2019-03-21T12:10:58.648Z,13.07
2019-03-21T12:13:29.315Z,13.11
2019-03-21T12:15:59.992Z,13.13
2019-03-21T12:18:30.632Z,13.23
2019-03-21T12:21:01.282Z,13.25
2019-03-21T12:23:31.931Z,13.34
2019-03-21T12:26:02.592Z,13.29
2019-03-21T12:28:33.276Z,13.35
2019-03-21T12:31:04.038Z,13.39
2019-03-21T12:33:35.672Z,13.44
2019-03-21T12:36:06.342Z,12.86
2019-03-21T12:38:37.073Z,13.56
2019-03-21T12:41:07.763Z,13.63
2019-03-21T12:43:38.451Z,13.63
2019-03-21T12:46:09.110Z,13.64
2019-03-21T12:48:39.773Z,13.64
2019-03-21T12:51:10.805Z,13.67
2019-03-21T12:53:41.587Z,13.69
2019-03-21T12:56:12.274Z,13.66
2019-03-21T12:58:42.943Z,13.73
2019-03-21T13:01:13.628Z,13.68
2019-03-21T13:03:44.287Z,13.70
2019-03-21T13:06:14.980Z,13.67
2019-03-21T13:08:45.625Z,13.71
2019-03-21T13:11:16.281Z,13.79
2019-03-21T13:13:46.946Z,13.80
2019-03-21T13:16:17.614Z,13.85
2019-03-21T13:18:48.259Z,13.92
2019-03-21T13:21:18.932Z,13.90
2019-03-21T13:23:49.600Z,13.88
2019-03-21T13:26:20.267Z,13.80
2019-03-21T13:28:50.921Z,13.88
2019-03-21T13:31:21.610Z,13.91
2019-03-21T13:33:52.263Z,13.87
2019-03-21T13:36:22.929Z,14.01
2019-03-21T13:38:53.580Z,14.02
2019-03-21T13:41:24.257Z,14.05
2019-03-21T13:43:54.929Z,13.98
2019-03-21T13:46:25.601Z,13.96
2019-03-21T13:48:56.257Z,14.03
2019-03-21T13:51:26.939Z,14.04
2019-03-21T13:53:57.595Z,14.06
2019-03-21T13:56:37.793Z,13.91
2019-03-21T13:59:00.743Z,13.91
2019-03-21T14:01:31.605Z,14.01
2019-03-21T14:04:02.280Z,14.03
2019-03-21T14:06:32.960Z,13.91
2019-03-21T14:09:05.061Z,13.92
2019-03-21T14:11:35.819Z,13.95
2019-03-21T14:14:06.475Z,13.82
2019-03-21T14:16:37.149Z,13.94
2019-03-21T14:19:07.803Z,13.95
2019-03-21T14:21:38.465Z,14.12
2019-03-21T14:24:09.109Z,13.97
2019-03-21T14:26:39.769Z,14.03
2019-03-21T14:29:12.948Z,14.08
2019-03-21T14:31:42.839Z,14.10
2019-03-21T14:34:13.510Z,14.01
2019-03-21T14:36:44.181Z,13.96
2019-03-21T14:39:14.836Z,13.87
2019-03-21T14:41:45.501Z,13.85
2019-03-21T14:44:16.152Z,13.88
2019-03-21T14:46:46.812Z,13.76
2019-03-21T14:49:17.455Z,13.70
2019-03-21T14:51:48.122Z,13.71
2019-03-21T14:54:18.783Z,13.69
2019-03-21T14:56:49.464Z,13.62
2019-03-21T14:59:20.119Z,13.63
2019-03-21T15:01:50.800Z,13.58
2019-03-21T15:04:21.463Z,13.58
2019-03-21T15:06:52.125Z,13.63
2019-03-21T15:09:22.800Z,13.63
2019-03-21T15:11:53.656Z,13.66
2019-03-21T15:14:24.403Z,13.59
2019-03-21T15:16:55.048Z,13.62
2019-03-21T15:19:25.722Z,13.64
2019-03-21T15:21:56.403Z,13.47
2019-03-21T15:24:29.056Z,13.33
2019-03-21T15:26:59.726Z,13.40
2019-03-21T15:29:30.396Z,13.31
2019-03-21T15:32:01.125Z,13.26
2019-03-21T15:34:31.800Z,13.36
2019-03-21T15:37:02.483Z,13.29
2019-03-21T15:39:33.151Z,13.27
2019-03-21T15:42:03.911Z,13.20
2019-03-21T15:44:34.569Z,13.20
2019-03-21T15:47:05.329Z,13.16
2019-03-21T15:49:36.012Z,13.11
2019-03-21T15:52:06.762Z,13.07
2019-03-21T15:54:37.529Z,13.07
2019-03-21T15:57:08.211Z,13.04
2019-03-21T15:59:39.012Z,12.98
2019-03-21T16:02:09.715Z,12.92
2019-03-21T16:04:40.382Z,12.96
2019-03-21T16:07:11.069Z,12.92
2019-03-21T16:09:41.725Z,12.85
2019-03-21T16:12:12.404Z,12.80
2019-03-21T16:14:43.045Z,12.77
2019-03-21T16:17:13.831Z,12.68
2019-03-21T16:19:44.544Z,12.63
2019-03-21T16:22:15.165Z,12.57
2019-03-21T16:24:46.008Z,12.50
2019-03-21T16:27:17.110Z,12.43
2019-03-21T16:29:47.799Z,12.40
2019-03-21T16:32:18.480Z,12.37
2019-03-21T16:34:49.164Z,12.34
2019-03-21T16:37:19.861Z,12.22
2019-03-21T16:39:50.493Z,12.15
2019-03-21T16:42:21.215Z,12.15
2019-03-21T16:44:51.891Z,12.07
2019-03-21T16:47:22.573Z,12.05
2019-03-21T16:49:53.279Z,11.96
2019-03-21T16:52:24.034Z,11.95
2019-03-21T16:54:55.206Z,11.88
2019-03-21T16:57:26.201Z,11.83
2019-03-21T16:59:57.058Z,11.80
2019-03-21T17:02:27.771Z,11.79
2019-03-21T17:04:58.680Z,11.75
2019-03-21T17:07:29.457Z,11.67
2019-03-21T17:10:00.487Z,11.65
2019-03-21T17:12:31.245Z,11.55
2019-03-21T17:15:02.113Z,11.55
2019-03-21T17:17:32.783Z,11.52
2019-03-21T17:20:03.934Z,11.53
2019-03-21T17:22:34.676Z,11.50
2019-03-21T17:25:05.746Z,11.49
2019-03-21T17:27:36.425Z,11.48
2019-03-21T17:30:07.888Z,11.42
2019-03-21T17:32:38.580Z,11.38
2019-03-21T17:35:09.280Z,11.36
2019-03-21T17:37:40.211Z,11.29
2019-03-21T17:40:11.152Z,11.31
2019-03-21T17:42:41.919Z,11.20
2019-03-21T17:45:15.171Z,11.25
2019-03-21T17:47:45.999Z,11.25
2019-03-21T17:50:18.092Z,11.27
2019-03-21T17:52:49.036Z,11.19
2019-03-21T17:55:19.731Z,11.19
2019-03-21T17:57:50.395Z,11.11
2019-03-21T18:00:22.823Z,11.06
2019-03-21T18:02:53.709Z,11.06
2019-03-21T18:05:24.392Z,11.00
2019-03-21T18:07:55.090Z,10.96
2019-03-21T18:10:30.090Z,10.94
2019-03-21T18:13:01.165Z,10.89
2019-03-21T18:15:31.803Z,10.81
2019-03-21T18:18:02.631Z,10.77
2019-03-21T18:20:33.681Z,10.72
2019-03-21T18:23:04.428Z,10.69
2019-03-21T18:25:35.147Z,10.63
2019-03-21T18:28:08.599Z,10.61
2019-03-21T18:30:38.308Z,10.53
2019-03-21T18:33:09.005Z,10.50
2019-03-21T18:35:39.677Z,10.45
2019-03-21T18:38:10.358Z,10.43
2019-03-21T18:40:41.031Z,10.39
2019-03-21T18:43:11.730Z,10.32
2019-03-21T18:45:42.402Z,10.30
2019-03-21T18:48:13.150Z,10.27
2019-03-21T18:50:43.789Z,10.29
2019-03-21T18:53:14.443Z,10.22
2019-03-21T18:55:45.128Z,10.23
2019-03-21T18:58:15.853Z,10.22
2019-03-21T19:00:46.517Z,10.15
2019-03-21T19:03:17.231Z,10.14
2019-03-21T19:05:47.919Z,10.10
2019-03-21T19:08:18.594Z,10.04
2019-03-21T19:10:49.266Z,10.02
2019-03-21T19:13:19.975Z,10.03
2019-03-21T19:15:50.633Z,9.98
2019-03-21T19:18:21.332Z,9.96
2019-03-21T19:20:52.093Z,9.94
2019-03-21T19:23:22.761Z,9.95
2019-03-21T19:25:53.458Z,9.92
2019-03-21T19:28:24.300Z,9.90
2019-03-21T19:30:54.984Z,9.88
2019-03-21T19:33:25.666Z,9.83
2019-03-21T19:35:56.336Z,9.81
2019-03-21T19:38:27.026Z,9.80
2019-03-21T19:40:57.806Z,9.77
2019-03-21T19:43:28.495Z,9.67
2019-03-21T19:45:59.300Z,9.63
2019-03-21T19:48:30.069Z,9.65
2019-03-21T19:51:00.751Z,9.64
2019-03-21T19:53:32.078Z,9.65
2019-03-21T19:56:08.440Z,9.64
2019-03-21T19:58:35.102Z,9.64
2019-03-21T20:01:06.475Z,9.61
2019-03-21T20:03:37.218Z,9.46
2019-03-21T20:06:07.893Z,9.47
2019-03-21T20:08:39.013Z,9.54
2019-03-21T20:11:10.598Z,9.56
2019-03-21T20:13:42.069Z,9.58
2019-03-21T20:16:13.031Z,9.67
2019-03-21T20:18:43.885Z,9.73
2019-03-21T20:21:14.686Z,9.77
2019-03-21T20:23:45.421Z,9.79
2019-03-21T20:26:16.173Z,9.79
2019-03-21T20:28:46.895Z,9.83
2019-03-21T20:31:17.591Z,9.87
2019-03-21T20:33:48.265Z,9.82
2019-03-21T20:36:18.939Z,9.83
2019-03-21T20:38:49.678Z,9.87
2019-03-21T20:41:20.346Z,9.92
2019-03-21T20:43:51.110Z,9.88
2019-03-21T20:46:21.777Z,9.89
2019-03-21T20:48:50.399Z,9.87
2019-03-21T20:51:21.094Z,9.92
2019-03-21T20:53:51.783Z,9.96
2019-03-21T20:56:22.450Z,9.93
2019-03-21T20:58:53.674Z,9.92
2019-03-21T21:01:24.458Z,9.69
2019-03-21T21:03:55.234Z,9.58
2019-03-21T21:06:25.919Z,9.48
2019-03-21T21:08:56.602Z,9.34
2019-03-21T21:11:27.301Z,9.20
2019-03-21T21:13:58.042Z,9.12
2019-03-21T21:16:28.694Z,9.03
2019-03-21T21:18:59.359Z,9.08
2019-03-21T21:21:30.119Z,8.96
2019-03-21T21:24:01.069Z,8.77
2019-03-21T21:26:33.188Z,8.75
2019-03-21T21:29:04.310Z,8.70
2019-03-21T21:31:34.972Z,8.51
2019-03-21T21:34:06.223Z,8.49
2019-03-21T21:36:37.422Z,8.45
2019-03-21T21:39:09.082Z,8.36
2019-03-21T21:41:39.848Z,8.31
2019-03-21T21:44:10.551Z,8.24
2019-03-21T21:46:41.277Z,8.12
2019-03-21T21:49:13.120Z,7.94
2019-03-21T21:51:43.921Z,7.95
2019-03-21T21:54:14.616Z,7.81
2019-03-21T21:56:45.260Z,7.83
2019-03-21T21:59:15.923Z,7.85
2019-03-21T22:01:46.612Z,7.76
2019-03-21T22:04:17.283Z,7.78
2019-03-21T22:06:47.962Z,7.79
2019-03-21T22:09:18.656Z,7.82
2019-03-21T22:11:49.327Z,7.71
2019-03-21T22:14:20.023Z,7.70
2019-03-21T22:16:50.679Z,7.66
2019-03-21T22:19:21.434Z,7.67
2019-03-21T22:21:52.193Z,7.68
2019-03-21T22:24:22.937Z,7.65
2019-03-21T22:26:53.658Z,7.65
2019-03-21T22:29:24.346Z,7.66
2019-03-21T22:31:55.048Z,7.67
2019-03-21T22:34:25.746Z,7.67
2019-03-21T22:36:56.466Z,7.66
2019-03-21T22:39:27.148Z,7.65
2019-03-21T22:41:57.794Z,7.64
2019-03-21T22:44:28.483Z,7.64
2019-03-21T22:46:59.144Z,7.62
2019-03-21T22:49:29.829Z,7.60
2019-03-21T22:52:00.487Z,7.57
2019-03-21T22:54:31.168Z,7.55
2019-03-21T22:57:02.893Z,7.53
2019-03-21T22:59:33.547Z,7.50
2019-03-21T23:02:04.782Z,7.47
2019-03-21T23:04:35.485Z,7.45
2019-03-21T23:07:06.140Z,7.38
2019-03-21T23:09:36.817Z,7.32
2019-03-21T23:12:07.474Z,7.20
2019-03-21T23:14:38.157Z,7.08
2019-03-21T23:17:08.819Z,6.99
2019-03-21T23:19:39.520Z,6.90
2019-03-21T23:22:10.205Z,6.78
2019-03-21T23:24:40.858Z,6.68
2019-03-21T23:27:11.520Z,6.62
2019-03-21T23:29:42.186Z,6.57
2019-03-21T23:32:12.925Z,6.49
2019-03-21T23:34:43.846Z,6.47
2019-03-21T23:37:14.527Z,6.46
2019-03-21T23:39:45.216Z,6.41
2019-03-21T23:42:15.871Z,6.35
2019-03-21T23:44:46.533Z,6.34
2019-03-21T23:47:17.195Z,6.31
2019-03-21T23:49:47.853Z,6.28
2019-03-21T23:52:18.506Z,6.27
2019-03-21T23:54:49.180Z,6.23
2019-03-21T23:57:19.861Z,6.20
2019-03-21T23:59:50.517Z,6.15
